Data for 03/22/2014

Time Sea-Level Adjusted Pressure Absolute Pressure Temperature Relative Humidity Dew Point   
(mb) (inHg) (mb) (inHg) (C) (F) (%) (C) (F)
00:05 1022 30.18 851 25.13 -8.1 17.4 80 -11 12.2
00:10 1022 30.18 851 25.13 -8.1 17.4 80 -11 12.2
00:15 1022 30.18 851 25.13 -8.2 17.3 80 -11.1 12.1
00:20 1022 30.18 851 25.13 -8.2 17.3 80 -11.1 12.1
00:25 1022 30.18 851 25.13 -8.2 17.2 80 -11.1 12
00:30 1022 30.18 851 25.13 -8.3 17.1 80 -11.1 12
00:35 1022 30.18 851 25.13 -8.3 17 80 -11.2 11.9
00:40 1022 30.18 851 25.13 -8.3 17.1 80 -11.1 11.9
00:45 1022 30.18 851 25.13 -8.3 17 79 -11.3 11.6
00:50 1022 30.18 851 25.13 -8.3 17 79 -11.4 11.6
00:55 1022 30.18 851 25.13 -8.3 17 79 -11.4 11.4
01:00 1022 30.18 851 25.13 -8.4 17 79 -11.4 11.4
01:05 1022 30.18 852 25.16 -8.4 16.9 79 -11.5 11.3
01:10 1022 30.18 851 25.13 -8.5 16.8 80 -11.4 11.5
01:15 1022 30.18 852 25.16 -8.5 16.7 80 -11.4 11.5
01:20 1022 30.18 852 25.16 -8.6 16.6 80 -11.4 11.4
01:25 1022 30.18 852 25.16 -8.6 16.5 79 -11.6 11.1
01:30 1022 30.18 852 25.16 -8.6 16.6 78 -11.7 11
01:35 1022 30.18 852 25.16 -8.6 16.5 79 -11.7 11
01:40 1022 30.18 852 25.16 -8.6 16.5 77 -11.9 10.6
01:45 1022 30.18 852 25.16 -8.6 16.5 78 -11.9 10.7
01:50 1023 30.21 852 25.16 -8.6 16.5 77 -11.9 10.6
01:55 1023 30.21 852 25.16 -8.7 16.4 77 -12 10.5
02:00 1023 30.21 852 25.16 -8.7 16.3 77 -12.1 10.3
02:05 1023 30.21 852 25.16 -8.7 16.3 76 -12.2 10
02:10 1023 30.21 852 25.16 -8.7 16.3 75 -12.4 9.8
02:15 1022 30.18 852 25.16 -8.7 16.3 75 -12.5 9.5
02:20 1022 30.18 852 25.16 -8.8 16.3 74 -12.5 9.5
02:25 1022 30.18 852 25.16 -8.8 16.2 74 -12.6 9.3
02:30 1022 30.18 852 25.16 -8.8 16.2 74 -12.7 9.1
02:35 1022 30.18 852 25.16 -8.8 16.1 73 -12.8 9
02:40 1022 30.18 852 25.16 -8.9 16.1 74 -12.8 9
02:45 1022 30.18 852 25.16 -8.9 16 74 -12.8 9
02:50 1022 30.18 852 25.16 -8.9 16 73 -12.9 8.8
02:55 1022 30.18 852 25.16 -9 15.9 73 -12.9 8.8
03:00 1022 30.18 852 25.16 -9 15.9 73 -13 8.7
03:05 1022 30.18 852 25.16 -9 15.8 72 -13.1 8.4
03:10 1022 30.18 852 25.16 -9.1 15.7 71 -13.4 8
03:15 1022 30.18 852 25.16 -9.1 15.7 72 -13.3 8.1
03:20 1022 30.18 852 25.16 -9.1 15.6 72 -13.3 8.1
03:25 1023 30.21 852 25.16 -9.2 15.5 72 -13.3 8.1
03:30 1023 30.21 852 25.16 -9.2 15.5 72 -13.3 8.1
03:35 1023 30.21 852 25.16 -9.2 15.4 72 -13.3 8
03:40 1023 30.21 852 25.16 -9.2 15.4 73 -13.2 8.2
03:45 1023 30.21 852 25.16 -9.3 15.3 72 -13.4 7.9
03:50 1023 30.21 852 25.16 -9.3 15.2 72 -13.5 7.7
03:55 1023 30.21 852 25.16 -9.4 15.1 71 -13.6 7.5
04:00 1023 30.21 852 25.16 -9.4 15.1 72 -13.6 7.5
04:05 1023 30.21 852 25.16 -9.5 15 73 -13.5 7.7
04:10 1023 30.21 852 25.16 -9.5 14.9 72 -13.7 7.4
04:15 1023 30.21 852 25.16 -9.6 14.8 72 -13.7 7.3
04:20 1023 30.21 852 25.16 -9.6 14.7 72 -13.7 7.3
04:25 1023 30.21 852 25.16 -9.6 14.6 72 -13.8 7.2
04:30 1023 30.21 852 25.16 -9.7 14.5 72 -13.9 7
04:35 1023 30.21 852 25.16 -9.8 14.4 73 -13.8 7.1
04:40 1023 30.21 852 25.16 -9.8 14.3 72 -13.9 6.9
04:45 1023 30.21 852 25.16 -9.9 14.2 72 -14 6.8
04:50 1023 30.21 852 25.16 -10 14.1 73 -14 6.8
04:55 1023 30.21 852 25.16 -10 14 73 -14 6.7
05:00 1023 30.21 852 25.16 -10.1 13.9 73 -14.1 6.6
05:05 1023 30.21 853 25.19 -10.1 13.8 73 -14 6.7
05:10 1023 30.21 853 25.19 -10.2 13.6 74 -14.1 6.7
05:15 1023 30.21 853 25.19 -10.3 13.5 73 -14.3 6.3
05:20 1023 30.21 853 25.19 -10.4 13.3 73 -14.4 6.1
05:25 1024 30.24 853 25.19 -10.4 13.2 74 -14.3 6.3
05:30 1024 30.24 853 25.19 -10.5 13.1 74 -14.3 6.2
05:35 1024 30.24 853 25.19 -10.6 12.9 75 -14.3 6.3
05:40 1024 30.24 853 25.19 -10.7 12.7 75 -14.4 6.1
05:45 1024 30.24 853 25.19 -10.8 12.6 75 -14.4 6
05:50 1024 30.24 853 25.19 -10.9 12.5 75 -14.5 6
05:55 1024 30.24 853 25.19 -10.9 12.3 75 -14.5 5.9
06:00 1024 30.24 853 25.19 -11 12.2 75 -14.6 5.7
06:05 1024 30.24 853 25.19 -11.1 12.1 74 -14.8 5.4
06:10 1024 30.24 853 25.19 -11.1 12 74 -14.9 5.2
06:15 1024 30.24 853 25.19 -11.2 11.8 75 -14.9 5.2
06:20 1024 30.24 853 25.19 -11.3 11.7 74 -15 5.1
06:25 1024 30.24 854 25.22 -11.4 11.6 75 -15 5.1
06:30 1024 30.24 854 25.22 -11.4 11.4 75 -15 5.1
06:35 1024 30.24 854 25.22 -11.5 11.4 76 -15 5
06:40 1025 30.27 854 25.22 -11.5 11.3 76 -15 5
06:45 1025 30.27 854 25.22 -11.5 11.4 75 -15.1 4.8
06:50 1025 30.27 854 25.22 -11.4 11.5 74 -15.2 4.7
06:55 1025 30.27 854 25.22 -11.4 11.5 73 -15.2 4.6
07:00 1025 30.27 854 25.22 -11.3 11.6 72 -15.4 4.4
07:05 1025 30.27 854 25.22 -11.2 11.9 72 -15.3 4.4
07:10 1025 30.27 854 25.22 -11.2 11.9 71 -15.5 4.1
07:15 1025 30.27 854 25.22 -11.1 12 70 -15.6 3.9
07:20 1025 30.27 854 25.22 -11 12.1 69 -15.6 3.9
07:25 1025 30.27 854 25.22 -10.9 12.4 69 -15.6 3.9
07:30 1025 30.27 854 25.22 -11 12.2 68 -15.8 3.6
07:35 1025 30.27 854 25.22 -11 12.2 68 -15.8 3.5
07:40 1025 30.27 854 25.22 -11.1 12.1 68 -15.8 3.5
07:45 1025 30.27 854 25.22 -10.9 12.3 68 -15.7 3.8
07:50 1025 30.27 854 25.22 -10.7 12.8 67 -15.7 3.8
07:55 1025 30.27 854 25.22 -10.7 12.8 66 -15.8 3.6
08:00 1025 30.27 854 25.22 -10.6 12.9 66 -15.7 3.7
08:05 1025 30.27 854 25.22 -10.4 13.2 66 -15.6 4
08:10 1025 30.27 854 25.22 -10.2 13.7 65 -15.5 4.1
08:15 1025 30.27 854 25.22 -10.1 13.7 64 -15.7 3.8
08:20 1025 30.27 854 25.22 -9.8 14.4 64 -15.5 4.2
08:25 1025 30.27 854 25.22 -9.5 14.9 63 -15.4 4.3
08:30 1025 30.27 854 25.22 -9.6 14.6 62 -15.7 3.8
08:35 1025 30.27 854 25.22 -9.3 15.3 64 -14.9 5.1
08:40 1025 30.27 854 25.22 -9.4 15.1 62 -15.3 4.4
08:45 1025 30.27 854 25.22 -9.5 14.9 63 -15.2 4.6
08:50 1025 30.27 854 25.22 -9.5 14.9 63 -15.3 4.5
08:55 1025 30.27 854 25.22 -9.6 14.8 63 -15.4 4.4
09:00 1025 30.27 854 25.22 -9.5 14.9 63 -15.2 4.6
09:05 1025 30.27 854 25.22 -9.4 15.1 62 -15.4 4.2
09:10 1025 30.27 854 25.22 -9.3 15.3 62 -15.4 4.3
09:15 1025 30.27 854 25.22 -9 15.8 61 -15.2 4.6
09:20 1025 30.27 854 25.22 -8.8 16.1 60 -15.3 4.5
09:25 1025 30.27 854 25.22 -8.6 16.6 60 -15.1 4.8
09:30 1025 30.27 854 25.22 -8.6 16.6 61 -14.9 5.3
09:35 1025 30.27 854 25.22 -8.1 17.4 58 -15 4.9
09:40 1025 30.27 854 25.22 -8.4 17 58 -15.3 4.5
09:45 1025 30.27 854 25.22 -8.2 17.3 58 -15.1 4.8
09:50 1025 30.27 854 25.22 -7.9 17.7 57 -14.9 5.1
09:55 1025 30.27 854 25.22 -7.3 18.9 56 -14.6 5.7
10:00 1025 30.27 855 25.25 -6.9 19.7 53 -14.8 5.3
10:05 1025 30.27 855 25.25 -7.3 18.9 59 -14.1 6.7
10:10 1025 30.27 855 25.25 -7.1 19.2 57 -14.2 6.5
10:15 1025 30.27 855 25.25 -7 19.5 55 -14.5 5.9
10:20 1025 30.27 855 25.25 -6.7 20 57 -13.9 7
10:25 1025 30.27 855 25.25 -6.8 19.7 64 -12.6 9.3
10:30 1025 30.27 855 25.25 -7.7 18.1 68 -12.6 9.3
10:35 1025 30.27 855 25.25 -7.8 17.9 68 -12.7 9.1
10:40 1025 30.27 855 25.25 -8 17.6 68 -13 8.6
10:45 1026 30.3 855 25.25 -7.4 18.7 65 -12.9 8.8
10:50 1025 30.27 855 25.25 -6.9 19.6 63 -12.8 9
10:55 1025 30.27 855 25.25 -6.2 20.8 62 -12.4 9.7
11:00 1025 30.27 855 25.25 -5.6 22 63 -11.6 11.1
11:05 1026 30.3 855 25.25 -6.3 20.6 65 -11.8 10.7
11:10 1026 30.3 855 25.25 -6.9 19.6 64 -12.7 9.1
11:15 1025 30.27 855 25.25 -6.7 20 60 -13.1 8.4
11:20 1025 30.27 855 25.25 -5.5 22 60 -12.1 10.2
11:25 1025 30.27 855 25.25 -5.4 22.2 62 -11.7 11
11:30 1025 30.27 855 25.25 -6 21.2 65 -11.6 11.1
11:35 1025 30.27 855 25.25 -6.1 21.1 66 -11.4 11.5
11:40 1025 30.27 855 25.25 -6.2 20.8 65 -11.9 10.7
11:45 1025 30.27 854 25.22 -5.3 22.5 60 -12 10.5
11:50 1025 30.27 854 25.22 -4.6 23.6 57 -11.9 10.5
11:55 1025 30.27 854 25.22 -4.1 24.6 55 -11.8 10.7
12:00 1025 30.27 854 25.22 -4.2 24.5 55 -12 10.4
12:05 1025 30.27 854 25.22 -3.8 25.2 54 -11.9 10.6
12:10 1025 30.27 854 25.22 -3.5 25.8 57 -10.9 12.4
12:15 1025 30.27 854 25.22 -3.6 25.5 56 -11.2 11.8
12:20 1025 30.27 854 25.22 -3.4 25.8 56 -11 12.3
12:25 1025 30.27 854 25.22 -3.8 25.1 56 -11.5 11.4
12:30 1025 30.27 854 25.22 -4.5 23.9 58 -11.6 11.1
12:35 1025 30.27 854 25.22 -4 24.7 56 -11.5 11.3
12:40 1025 30.27 854 25.22 -3.8 25.2 55 -11.5 11.2
12:45 1025 30.27 854 25.22 -2.9 26.8 51 -11.6 11.2
12:50 1025 30.27 854 25.22 -2.8 26.9 53 -11.2 11.8
12:55 1025 30.27 854 25.22 -2.8 27 52 -11.3 11.7
13:00 1025 30.27 854 25.22 -2.2 28 52 -10.7 12.7
13:05 1025 30.27 854 25.22 -2.6 27.3 51 -11.4 11.4
13:10 1025 30.27 854 25.22 -3 26.7 53 -11.4 11.5
13:15 1024 30.24 854 25.22 -2.6 27.3 53 -11 12.3
13:20 1024 30.24 854 25.22 -1.7 28.9 51 -10.5 13.1
13:25 1024 30.24 854 25.22 -1.7 28.9 51 -10.7 12.8
13:30 1024 30.24 853 25.19 -1.9 28.6 52 -10.4 13.2
13:35 1024 30.24 853 25.19 -1.6 29 50 -10.8 12.6
13:40 1024 30.24 853 25.19 -1.7 29 49 -10.9 12.3
13:45 1024 30.24 853 25.19 -1.7 28.9 49 -11.1 12.1
13:50 1024 30.24 853 25.19 -1.7 29 52 -10.2 13.7
13:55 1024 30.24 853 25.19 -2.4 27.7 55 -10.4 13.4
14:00 1024 30.24 853 25.19 -2.2 28.1 54 -10.3 13.5
14:05 1024 30.24 853 25.19 -1.5 29.3 51 -10.3 13.5
14:10 1024 30.24 853 25.19 -0.9 30.4 47 -10.9 12.3
14:15 1024 30.24 853 25.19 -1 30.3 50 -10.2 13.7
14:20 1024 30.24 853 25.19 -1.2 29.9 49 -10.7 12.8
14:25 1024 30.24 853 25.19 -1 30.1 48 -10.7 12.8
14:30 1024 30.24 853 25.19 -1 30.2 49 -10.5 13.1
14:35 1024 30.24 853 25.19 -0.7 30.8 48 -10.4 13.2
14:40 1024 30.24 853 25.19 -1.2 29.8 51 -10.1 13.8
14:45 1024 30.24 853 25.19 -1.1 29.9 50 -10.4 13.4
14:50 1024 30.24 853 25.19 -1.9 28.7 55 -9.7 14.5
14:55 1024 30.24 853 25.19 -2.5 27.4 57 -9.9 14.1
15:00 1024 30.24 853 25.19 -2.4 27.7 57 -9.9 14.2
15:05 1023 30.21 853 25.19 -2.5 27.4 56 -10.1 13.8
15:10 1023 30.21 853 25.19 -2.6 27.4 57 -10 13.9
15:15 1023 30.21 853 25.19 -2.2 28.1 54 -10.3 13.5
15:20 1023 30.21 853 25.19 -1.6 29.2 52 -10.3 13.5
15:25 1023 30.21 852 25.16 -1.4 29.5 53 -9.8 14.4
15:30 1023 30.21 852 25.16 -2 28.4 54 -10.1 13.8
15:35 1023 30.21 852 25.16 -1.8 28.7 53 -10.2 13.6
15:40 1023 30.21 852 25.16 -1.3 29.7 50 -10.5 13.2
15:45 1023 30.21 852 25.16 -0.5 31.1 47 -10.4 13.2
15:50 1023 30.21 852 25.16 -0.7 30.8 50 -9.9 14.3
15:55 1023 30.21 852 25.16 -0.4 31.2 46 -10.7 12.7
16:00 1023 30.21 852 25.16 -0.8 30.6 51 -9.8 14.3
16:05 1023 30.21 852 25.16 -1.4 29.4 52 -10.1 13.8
16:10 1023 30.21 852 25.16 -1.4 29.4 50 -10.6 13
16:15 1023 30.21 852 25.16 -1.4 29.6 50 -10.5 13.1
16:20 1023 30.21 852 25.16 -1.3 29.7 49 -10.6 13
16:25 1023 30.21 852 25.16 -1.6 29.2 49 -10.8 12.5
16:30 1023 30.21 852 25.16 -1.7 29 47 -11.4 11.4
16:35 1023 30.21 852 25.16 -1.6 29.2 47 -11.4 11.4
16:40 1022 30.18 852 25.16 -1 30.1 47 -11 12.2
16:45 1022 30.18 852 25.16 -0.9 30.4 44 -11.8 10.8
16:50 1022 30.18 852 25.16 -1.1 30.1 42 -12.3 9.9
16:55 1022 30.18 852 25.16 -1 30.3 42 -12.3 9.9
17:00 1022 30.18 851 25.13 -0.6 30.9 40 -12.5 9.5
17:05 1022 30.18 851 25.13 -0.5 31.1 41 -12.3 9.8
17:10 1022 30.18 851 25.13 -1.1 30.1 41 -12.9 8.9
17:15 1022 30.18 851 25.13 -1.1 30 38 -13.7 7.4
17:20 1022 30.18 851 25.13 -1.2 29.8 39 -13.4 7.8
17:25 1022 30.18 851 25.13 -1.1 30.1 37 -14.1 6.5
17:30 1022 30.18 851 25.13 -0.8 30.6 34 -14.9 5.2
17:35 1022 30.18 851 25.13 -0.8 30.6 33 -15.2 4.7
17:40 1022 30.18 851 25.13 -0.9 30.5 30 -16.5 2.3
17:45 1022 30.18 851 25.13 -1.1 30 31 -16.1 2.9
17:50 1022 30.18 851 25.13 -1.2 29.9 30 -16.6 2.1
17:55 1022 30.18 851 25.13 -1.1 29.9 33 -15.5 4.2
18:00 1022 30.18 851 25.13 -1.2 29.8 38 -13.7 7.4
18:05 1022 30.18 851 25.13 -1.4 29.5 39 -13.8 7.2
18:10 1022 30.18 851 25.13 -1.3 29.6 35 -14.8 5.3
18:15 1022 30.18 851 25.13 -1.4 29.5 33 -15.7 3.8
18:20 1022 30.18 851 25.13 -1.7 29 38 -14.4 6.1
18:25 1021 30.15 851 25.13 -1.8 28.8 37 -14.6 5.7
18:30 1021 30.15 851 25.13 -2 28.5 40 -13.8 7.2
18:35 1021 30.15 851 25.13 -2.2 28 42 -13.6 7.6
18:40 1021 30.15 851 25.13 -2.5 27.6 47 -12.3 9.8
18:45 1021 30.15 850 25.1 -2.6 27.3 50 -11.7 11
18:50 1021 30.15 850 25.1 -2.7 27.1 52 -11.3 11.7
18:55 1021 30.15 850 25.1 -2.9 26.8 53 -11.1 12
19:00 1021 30.15 850 25.1 -3 26.6 54 -11 12.1
19:05 1021 30.15 850 25.1 -3.1 26.5 54 -11.1 12
19:10 1021 30.15 850 25.1 -3.2 26.2 55 -11 12.2
19:15 1021 30.15 850 25.1 -3.4 26 56 -11 12.2
19:20 1021 30.15 850 25.1 -3.4 25.8 56 -11 12.2
19:25 1021 30.15 850 25.1 -3.5 25.7 57 -10.9 12.3
19:30 1021 30.15 850 25.1 -3.6 25.5 57 -10.9 12.3
19:35 1021 30.15 850 25.1 -3.6 25.4 57 -10.9 12.4
19:40 1021 30.15 850 25.1 -3.7 25.3 58 -10.9 12.4
19:45 1021 30.15 850 25.1 -3.7 25.3 57 -11.1 12
19:50 1021 30.15 850 25.1 -3.6 25.4 56 -11.1 12
19:55 1021 30.15 850 25.1 -3.7 25.4 57 -11 12.1
20:00 1021 30.15 850 25.1 -3.7 25.3 57 -11 12.2
20:05 1021 30.15 850 25.1 -3.7 25.3 57 -11.1 12
20:10 1021 30.15 850 25.1 -3.7 25.3 56 -11.2 11.8
20:15 1021 30.15 850 25.1 -3.7 25.3 57 -11.1 12.1
20:20 1021 30.15 850 25.1 -3.8 25.2 57 -11.1 12
20:25 1021 30.15 850 25.1 -3.7 25.3 57 -11.1 12
20:30 1021 30.15 850 25.1 -3.7 25.3 57 -11 12.1
20:35 1021 30.15 850 25.1 -3.7 25.3 58 -10.9 12.4
20:40 1021 30.15 850 25.1 -3.8 25.1 59 -10.8 12.6
20:45 1021 30.15 850 25.1 -3.9 25 59 -10.8 12.5
20:50 1021 30.15 850 25.1 -3.9 24.9 59 -10.9 12.4
20:55 1021 30.15 850 25.1 -4 24.8 60 -10.8 12.6
21:00 1021 30.15 850 25.1 -4.2 24.5 60 -10.8 12.6
21:05 1021 30.15 850 25.1 -4.3 24.3 61 -10.7 12.7
21:10 1020 30.12 850 25.1 -4.3 24.2 61 -10.8 12.6
21:15 1020 30.12 850 25.1 -4.4 24.1 62 -10.7 12.8
21:20 1020 30.12 850 25.1 -4.5 23.9 62 -10.7 12.8
21:25 1020 30.12 850 25.1 -4.5 23.8 62 -10.7 12.8
21:30 1020 30.12 850 25.1 -4.5 23.8 63 -10.5 13
21:35 1020 30.12 850 25.1 -4.6 23.7 63 -10.6 12.9
21:40 1020 30.12 849 25.07 -4.6 23.7 63 -10.6 12.9
21:45 1020 30.12 849 25.07 -4.6 23.8 62 -10.7 12.7
21:50 1020 30.12 849 25.07 -4.5 23.8 62 -10.7 12.8
21:55 1020 30.12 849 25.07 -4.5 23.9 63 -10.5 13
22:00 1020 30.12 849 25.07 -4.5 23.9 63 -10.6 13
22:05 1020 30.12 849 25.07 -4.5 23.9 63 -10.5 13.1
22:10 1020 30.12 849 25.07 -4.5 24 62 -10.6 13
22:15 1020 30.12 849 25.07 -4.4 24.1 62 -10.6 13
22:20 1020 30.12 849 25.07 -4.4 24 63 -10.5 13
22:25 1020 30.12 849 25.07 -4.5 23.9 63 -10.4 13.2
22:30 1020 30.12 849 25.07 -4.6 23.8 64 -10.3 13.5
22:35 1020 30.12 849 25.07 -4.6 23.7 65 -10.3 13.4
22:40 1020 30.12 849 25.07 -4.7 23.5 64 -10.5 13.2
22:45 1020 30.12 849 25.07 -4.8 23.4 65 -10.5 13.2
22:50 1020 30.12 849 25.07 -4.8 23.4 64 -10.5 13.1
22:55 1020 30.12 849 25.07 -4.7 23.5 64 -10.6 12.9
23:00 1019 30.09 849 25.07 -4.7 23.5 64 -10.5 13.1
23:05 1019 30.09 849 25.07 -4.7 23.5 64 -10.6 12.9
23:10 1019 30.09 849 25.07 -4.8 23.4 64 -10.6 13
23:15 1019 30.09 848 25.04 -4.8 23.4 64 -10.7 12.8
23:20 1019 30.09 848 25.04 -4.7 23.5 64 -10.6 12.9
23:25 1019 30.09 848 25.04 -4.7 23.5 64 -10.5 13
23:30 1019 30.09 848 25.04 -4.7 23.5 65 -10.4 13.2
23:35 1019 30.09 848 25.04 -4.8 23.4 64 -10.6 12.9
23:40 1019 30.09 848 25.04 -4.8 23.4 64 -10.6 13
23:45 1019 30.09 848 25.04 -4.8 23.4 65 -10.5 13.1
23:50 1019 30.09 848 25.04 -4.9 23.2 65 -10.5 13.1
23:55 1019 30.09 848 25.04 -4.9 23.1 65 -10.6 13
24:00 1019 30.09 848 25.04 -4.9 23.1 65 -10.6 13